Time,TemperatureF,DewpointF,PressureIn,WindDirection,WindDirectionDegrees,WindSpeedMPH,WindSpeedGustMPH,Humidity,HourlyPrecipIn,Conditions,Clouds,dailyrainin,SoftwareType,DateUTC
2013-07-23 00:00:00,71.7,65.6,29.85,East,80,1.0,4.0,81,0.00,,,0.00,Wunderground v.1.15,2013-07-23 04:00:00,
2013-07-23 00:01:00,71.7,65.6,29.85,East,83,2.0,4.0,81,0.00,,,0.00,Wunderground v.1.15,2013-07-23 04:01:00,
2013-07-23 00:02:00,71.7,65.6,29.85,ESE,107,4.0,4.0,81,0.00,,,0.00,Wunderground v.1.15,2013-07-23 04:02:00,
2013-07-23 00:03:00,71.7,65.6,29.85,SE,131,3.0,4.0,81,0.00,,,0.00,Wunderground v.1.15,2013-07-23 04:03:00,
2013-07-23 00:04:00,71.7,65.6,29.85,ESE,121,2.0,4.0,81,0.00,,,0.00,Wunderground v.1.15,2013-07-23 04:04:00,
2013-07-23 00:10:00,71.7,65.6,29.85,ESE,107,3.0,3.0,81,0.00,,,0.00,Wunderground v.1.15,2013-07-23 04:10:00,
2013-07-23 00:13:00,71.6,65.8,29.85,ESE,103,2.0,5.0,82,0.00,,,0.00,Wunderground v.1.15,2013-07-23 04:13:00,
2013-07-23 00:18:00,71.6,65.8,29.85,SE,128,3.0,5.0,82,0.00,,,0.00,Wunderground v.1.15,2013-07-23 04:18:00,
2013-07-23 00:24:00,71.6,65.8,29.84,East,96,7.0,7.0,82,0.00,,,0.00,Wunderground v.1.15,2013-07-23 04:24:00,
2013-07-23 00:29:00,71.6,65.8,29.84,ENE,63,4.0,7.0,82,0.00,,,0.00,Wunderground v.1.15,2013-07-23 04:29:00,
2013-07-23 00:34:00,71.6,66.2,29.83,ESE,103,1.0,6.0,83,0.00,,,0.00,Wunderground v.1.15,2013-07-23 04:34:00,
2013-07-23 00:39:00,71.6,66.2,29.83,East,101,7.0,7.0,83,0.00,,,0.00,Wunderground v.1.15,2013-07-23 04:39:00,
2013-07-23 00:45:00,71.5,66.1,29.83,ESE,115,1.0,4.0,83,0.00,,,0.00,Wunderground v.1.15,2013-07-23 04:45:00,
2013-07-23 00:50:00,71.6,66.5,29.83,ESE,108,3.0,3.0,84,0.00,,,0.00,Wunderground v.1.15,2013-07-23 04:50:00,
2013-07-23 00:55:00,71.6,66.5,29.83,ESE,114,5.0,7.0,84,0.00,,,0.00,Wunderground v.1.15,2013-07-23 04:55:00,
2013-07-23 01:01:00,71.6,66.5,29.82,East,96,5.0,5.0,84,0.00,,,0.00,Wunderground v.1.15,2013-07-23 05:01:00,
2013-07-23 01:06:00,71.5,66.4,29.82,East,79,2.0,5.0,84,0.00,,,0.00,Wunderground v.1.15,2013-07-23 05:06:00,
2013-07-23 01:12:00,71.4,66.3,29.82,ESE,107,8.0,8.0,84,0.00,,,0.00,Wunderground v.1.15,2013-07-23 05:12:00,
2013-07-23 01:17:00,71.4,66.7,29.82,East,101,5.0,8.0,85,0.00,,,0.00,Wunderground v.1.15,2013-07-23 05:17:00,
2013-07-23 01:22:00,71.4,66.7,29.82,East,90,7.0,7.0,85,0.00,,,0.00,Wunderground v.1.15,2013-07-23 05:22:00,
2013-07-23 01:27:00,71.5,67.1,29.81,East,97,7.0,7.0,86,0.00,,,0.00,Wunderground v.1.15,2013-07-23 05:27:00,
2013-07-23 01:33:00,71.3,66.6,29.81,ENE,69,5.0,7.0,85,0.00,,,0.00,Wunderground v.1.15,2013-07-23 05:33:00,
2013-07-23 01:38:00,71.3,66.9,29.81,ESE,115,1.0,7.0,86,0.00,,,0.00,Wunderground v.1.15,2013-07-23 05:38:00,
2013-07-23 01:43:00,71.3,66.9,29.81,East,92,7.0,7.0,86,0.00,,,0.00,Wunderground v.1.15,2013-07-23 05:43:00,
2013-07-23 01:48:00,71.3,66.9,29.80,East,96,5.0,8.0,86,0.00,,,0.00,Wunderground v.1.15,2013-07-23 05:48:00,
2013-07-23 01:54:00,71.3,66.9,29.80,ESE,103,5.0,5.0,86,0.00,,,0.00,Wunderground v.1.15,2013-07-23 05:54:00,
2013-07-23 01:59:00,71.3,66.9,29.80,ESE,113,5.0,9.0,86,0.00,,,0.00,Wunderground v.1.15,2013-07-23 05:59:00,
2013-07-23 02:04:00,71.2,66.8,29.80,East,83,8.0,8.0,86,0.00,,,0.00,Wunderground v.1.15,2013-07-23 06:04:00,
2013-07-23 02:09:00,71.1,66.7,29.79,East,96,6.0,8.0,86,0.00,,,0.00,Wunderground v.1.15,2013-07-23 06:09:00,
2013-07-23 02:14:00,71.0,66.9,29.79,East,94,6.0,10.0,87,0.00,,,0.00,Wunderground v.1.15,2013-07-23 06:14:00,
2013-07-23 02:19:00,70.9,66.8,29.79,ENE,78,5.0,10.0,87,0.00,,,0.00,Wunderground v.1.15,2013-07-23 06:19:00,
2013-07-23 02:24:00,70.9,66.8,29.79,ESE,105,2.0,6.0,87,0.00,,,0.00,Wunderground v.1.15,2013-07-23 06:24:00,
2013-07-23 02:29:00,71.0,66.9,29.79,ENE,76,2.0,6.0,87,0.00,,,0.00,Wunderground v.1.15,2013-07-23 06:29:00,
2013-07-23 02:34:00,71.0,66.9,29.79,East,96,3.0,7.0,87,0.00,,,0.00,Wunderground v.1.15,2013-07-23 06:34:00,
2013-07-23 02:39:00,71.0,66.9,29.78,ESE,115,0.0,7.0,87,0.00,,,0.00,Wunderground v.1.15,2013-07-23 06:39:00,
2013-07-23 02:44:00,71.0,66.9,29.78,East,87,3.0,5.0,87,0.00,,,0.00,Wunderground v.1.15,2013-07-23 06:44:00,
2013-07-23 02:49:00,70.8,66.7,29.78,ESE,109,0.0,8.0,87,0.00,,,0.00,Wunderground v.1.15,2013-07-23 06:49:00,
2013-07-23 02:54:00,70.7,66.6,29.78,East,94,6.0,6.0,87,0.00,,,0.00,Wunderground v.1.15,2013-07-23 06:54:00,
2013-07-23 02:59:00,70.6,66.5,29.77,ENE,74,2.0,6.0,87,0.00,,,0.00,Wunderground v.1.15,2013-07-23 06:59:00,
2013-07-23 03:04:00,70.7,66.6,29.77,East,82,1.0,5.0,87,0.00,,,0.00,Wunderground v.1.15,2013-07-23 07:04:00,
2013-07-23 03:09:00,70.7,66.6,29.77,East,79,3.0,7.0,87,0.00,,,0.00,Wunderground v.1.15,2013-07-23 07:09:00,
2013-07-23 03:15:00,70.7,66.6,29.77,East,98,5.0,6.0,87,0.00,,,0.00,Wunderground v.1.15,2013-07-23 07:15:00,
2013-07-23 03:20:00,70.7,66.6,29.76,East,82,6.0,7.0,87,0.00,,,0.00,Wunderground v.1.15,2013-07-23 07:20:00,
2013-07-23 03:25:00,70.6,66.5,29.76,ESE,111,3.0,7.0,87,0.00,,,0.00,Wunderground v.1.15,2013-07-23 07:25:00,
2013-07-23 03:30:00,70.7,67.0,29.76,ESE,107,3.0,4.0,88,0.00,,,0.00,Wunderground v.1.15,2013-07-23 07:30:00,
2013-07-23 03:35:00,70.7,67.0,29.75,ESE,106,4.0,7.0,88,0.00,,,0.00,Wunderground v.1.15,2013-07-23 07:35:00,
2013-07-23 03:40:00,70.6,66.5,29.75,ENE,78,5.0,7.0,87,0.00,,,0.00,Wunderground v.1.15,2013-07-23 07:40:00,
2013-07-23 03:45:00,70.5,66.4,29.75,East,98,3.0,8.0,87,0.00,,,0.00,Wunderground v.1.15,2013-07-23 07:45:00,
2013-07-23 03:50:00,70.5,66.8,29.75,East,97,3.0,4.0,88,0.00,,,0.00,Wunderground v.1.15,2013-07-23 07:50:00,
2013-07-23 03:55:00,70.4,66.7,29.75,East,80,7.0,8.0,88,0.00,,,0.00,Wunderground v.1.15,2013-07-23 07:55:00,
2013-07-23 04:00:00,70.5,66.8,29.74,ENE,74,8.0,8.0,88,0.00,,,0.00,Wunderground v.1.15,2013-07-23 08:00:00,
2013-07-23 04:05:00,70.5,66.8,29.74,East,92,3.0,8.0,88,0.00,,,0.00,Wunderground v.1.15,2013-07-23 08:05:00,
2013-07-23 04:10:00,70.4,66.7,29.74,East,82,2.0,6.0,88,0.00,,,0.00,Wunderground v.1.15,2013-07-23 08:10:00,
2013-07-23 04:15:00,70.4,66.7,29.74,East,80,5.0,8.0,88,0.00,,,0.00,Wunderground v.1.15,2013-07-23 08:15:00,
2013-07-23 04:20:00,70.4,66.7,29.73,East,87,6.0,6.0,88,0.00,,,0.00,Wunderground v.1.15,2013-07-23 08:20:00,
2013-07-23 04:25:00,70.4,66.7,29.73,East,92,5.0,9.0,88,0.00,,,0.00,Wunderground v.1.15,2013-07-23 08:25:00,
2013-07-23 04:30:00,70.4,66.7,29.73,East,90,6.0,6.0,88,0.00,,,0.00,Wunderground v.1.15,2013-07-23 08:30:00,
2013-07-23 04:35:00,70.5,66.8,29.73,East,96,3.0,7.0,88,0.00,,,0.00,Wunderground v.1.15,2013-07-23 08:35:00,
2013-07-23 04:40:00,70.5,66.8,29.73,East,84,6.0,6.0,88,0.00,,,0.00,Wunderground v.1.15,2013-07-23 08:40:00,
2013-07-23 04:45:00,70.4,66.7,29.73,East,84,1.0,8.0,88,0.00,,,0.00,Wunderground v.1.15,2013-07-23 08:45:00,
2013-07-23 04:50:00,70.4,66.7,29.73,East,98,2.0,7.0,88,0.00,,,0.00,Wunderground v.1.15,2013-07-23 08:50:00,
2013-07-23 04:55:00,70.4,66.7,29.73,East,87,9.0,10.0,88,0.00,,,0.00,Wunderground v.1.15,2013-07-23 08:55:00,
2013-07-23 05:00:00,70.5,66.8,29.72,ESE,113,2.0,5.0,88,0.00,,,0.00,Wunderground v.1.15,2013-07-23 09:00:00,
2013-07-23 05:05:00,70.5,66.8,29.72,ESE,115,4.0,10.0,88,0.00,,,0.00,Wunderground v.1.15,2013-07-23 09:05:00,
2013-07-23 05:10:00,70.6,67.2,29.72,East,100,3.0,5.0,89,0.00,,,0.00,Wunderground v.1.15,2013-07-23 09:10:00,
2013-07-23 05:15:00,70.6,66.9,29.72,ESE,111,2.0,8.0,88,0.00,,,0.00,Wunderground v.1.15,2013-07-23 09:15:00,
2013-07-23 05:20:00,70.6,66.9,29.72,ESE,106,3.0,5.0,88,0.00,,,0.00,Wunderground v.1.15,2013-07-23 09:20:00,
2013-07-23 05:26:00,70.7,67.3,29.72,SE,125,0.0,10.0,89,0.00,,,0.00,Wunderground v.1.15,2013-07-23 09:26:00,
2013-07-23 05:31:00,70.7,67.3,29.72,ESE,115,4.0,6.0,89,0.00,,,0.01,Wunderground v.1.15,2013-07-23 09:31:00,
2013-07-23 05:36:00,70.8,67.4,29.72,ESE,110,7.0,8.0,89,0.00,,,0.01,Wunderground v.1.15,2013-07-23 09:36:00,
2013-07-23 05:41:00,70.7,67.0,29.71,East,100,6.0,6.0,88,0.00,,,0.01,Wunderground v.1.15,2013-07-23 09:41:00,
2013-07-23 05:46:00,70.6,66.9,29.71,ESE,105,3.0,12.0,88,0.00,,,0.01,Wunderground v.1.15,2013-07-23 09:46:00,
2013-07-23 05:51:00,70.4,66.7,29.71,East,98,1.0,7.0,88,0.00,,,0.01,Wunderground v.1.15,2013-07-23 09:51:00,
2013-07-23 05:56:00,70.4,67.0,29.71,ENE,77,4.0,7.0,89,0.00,,,0.01,Wunderground v.1.15,2013-07-23 09:56:00,
2013-07-23 06:01:00,70.3,66.9,29.71,ESE,105,4.0,4.0,89,0.00,,,0.01,Wunderground v.1.15,2013-07-23 10:01:00,
2013-07-23 06:06:00,70.3,66.9,29.71,East,101,5.0,8.0,89,0.00,,,0.01,Wunderground v.1.15,2013-07-23 10:06:00,
2013-07-23 06:11:00,70.3,66.9,29.71,ESE,104,2.0,4.0,89,0.00,,,0.01,Wunderground v.1.15,2013-07-23 10:11:00,
2013-07-23 06:16:00,70.4,67.0,29.71,East,95,3.0,9.0,89,0.00,,,0.01,Wunderground v.1.15,2013-07-23 10:16:00,
2013-07-23 06:21:00,70.4,67.0,29.70,ESE,111,7.0,11.0,89,0.00,,,0.01,Wunderground v.1.15,2013-07-23 10:21:00,
2013-07-23 06:26:00,70.3,66.9,29.70,East,95,6.0,11.0,89,0.35,,,0.06,Wunderground v.1.15,2013-07-23 10:26:00,
2013-07-23 06:31:00,70.3,66.9,29.70,East,86,5.0,7.0,89,0.09,,,0.06,Wunderground v.1.15,2013-07-23 10:31:00,
2013-07-23 06:36:00,70.3,66.9,29.70,East,97,5.0,10.0,89,0.09,,,0.07,Wunderground v.1.15,2013-07-23 10:36:00,
2013-07-23 06:41:00,70.3,66.9,29.70,East,80,7.0,7.0,89,0.08,,,0.08,Wunderground v.1.15,2013-07-23 10:41:00,
2013-07-23 06:46:00,70.3,66.9,29.69,East,94,6.0,10.0,89,0.08,,,0.08,Wunderground v.1.15,2013-07-23 10:46:00,
2013-07-23 06:51:00,70.3,66.9,29.69,ESE,108,7.0,11.0,89,0.07,,,0.09,Wunderground v.1.15,2013-07-23 10:51:00,
2013-07-23 06:56:00,70.4,67.0,29.69,East,88,7.0,11.0,89,0.07,,,0.10,Wunderground v.1.15,2013-07-23 10:56:00,
2013-07-23 07:01:00,70.3,66.9,29.69,East,97,5.0,7.0,89,0.07,,,0.10,Wunderground v.1.15,2013-07-23 11:01:00,
2013-07-23 07:06:00,70.3,66.9,29.69,East,88,2.0,7.0,89,0.06,,,0.10,Wunderground v.1.15,2013-07-23 11:06:00,
2013-07-23 07:11:00,70.4,67.0,29.69,ESE,109,1.0,4.0,89,0.04,,,0.10,Wunderground v.1.15,2013-07-23 11:11:00,
2013-07-23 07:16:00,70.5,67.1,29.68,ESE,102,8.0,8.0,89,0.00,,,0.10,Wunderground v.1.15,2013-07-23 11:16:00,
2013-07-23 07:21:00,70.6,67.2,29.68,East,92,7.0,7.0,89,0.00,,,0.11,Wunderground v.1.15,2013-07-23 11:21:00,
2013-07-23 07:26:00,70.7,67.3,29.68,ESE,117,8.0,10.0,89,0.00,,,0.11,Wunderground v.1.15,2013-07-23 11:26:00,
2013-07-23 07:31:00,70.7,67.3,29.68,ESE,116,4.0,10.0,89,0.05,,,0.12,Wunderground v.1.15,2013-07-23 11:31:00,
2013-07-23 07:36:00,70.6,67.2,29.68,ESE,119,4.0,10.0,89,0.05,,,0.12,Wunderground v.1.15,2013-07-23 11:36:00,
2013-07-23 07:41:00,70.6,67.2,29.68,East,100,5.0,8.0,89,0.06,,,0.13,Wunderground v.1.15,2013-07-23 11:41:00,
2013-07-23 07:46:00,70.7,67.3,29.67,ESE,123,3.0,9.0,89,0.10,,,0.14,Wunderground v.1.15,2013-07-23 11:46:00,
2013-07-23 07:51:00,70.8,67.4,29.67,SE,142,2.0,5.0,89,0.09,,,0.14,Wunderground v.1.15,2013-07-23 11:51:00,
2013-07-23 07:56:00,70.9,67.5,29.67,East,96,7.0,8.0,89,0.06,,,0.15,Wunderground v.1.15,2013-07-23 11:56:00,
2013-07-23 08:01:00,70.9,67.5,29.67,ESE,121,5.0,9.0,89,0.14,,,0.16,Wunderground v.1.15,2013-07-23 12:01:00,
2013-07-23 08:06:00,71.0,67.6,29.66,ESE,113,5.0,11.0,89,0.27,,,0.18,Wunderground v.1.15,2013-07-23 12:06:00,
2013-07-23 08:11:00,70.9,67.5,29.66,ESE,117,7.0,9.0,89,0.13,,,0.19,Wunderground v.1.15,2013-07-23 12:11:00,
2013-07-23 08:16:00,70.9,67.5,29.66,SE,128,3.0,9.0,89,0.09,,,0.20,Wunderground v.1.15,2013-07-23 12:16:00,
2013-07-23 08:22:00,71.0,67.6,29.66,East,97,3.0,5.0,89,0.07,,,0.20,Wunderground v.1.15,2013-07-23 12:22:00,
2013-07-23 08:27:00,71.0,67.6,29.66,East,98,7.0,7.0,89,0.05,,,0.20,Wunderground v.1.15,2013-07-23 12:27:00,
2013-07-23 08:32:00,71.0,67.6,29.65,ESE,105,2.0,5.0,89,0.00,,,0.20,Wunderground v.1.15,2013-07-23 12:32:00,
2013-07-23 08:37:00,71.0,67.6,29.65,ESE,107,4.0,6.0,89,0.00,,,0.20,Wunderground v.1.15,2013-07-23 12:37:00,
2013-07-23 08:42:00,71.0,67.9,29.65,ESE,117,0.0,5.0,90,0.00,,,0.20,Wunderground v.1.15,2013-07-23 12:42:00,
2013-07-23 08:47:00,71.2,68.1,29.65,ESE,118,3.0,7.0,90,0.00,,,0.20,Wunderground v.1.15,2013-07-23 12:47:00,
2013-07-23 08:52:00,71.3,68.2,29.65,ESE,111,3.0,7.0,90,0.00,,,0.21,Wunderground v.1.15,2013-07-23 12:52:00,
2013-07-23 08:57:00,71.3,68.2,29.64,ESE,121,5.0,7.0,90,0.00,,,0.21,Wunderground v.1.15,2013-07-23 12:57:00,
2013-07-23 09:02:00,71.4,68.3,29.64,East,99,3.0,6.0,90,0.00,,,0.21,Wunderground v.1.15,2013-07-23 13:02:00,
2013-07-23 09:07:00,71.5,68.4,29.64,ESE,108,2.0,7.0,90,0.00,,,0.22,Wunderground v.1.15,2013-07-23 13:07:00,
2013-07-23 09:12:00,71.6,68.5,29.63,East,101,2.0,5.0,90,0.00,,,0.22,Wunderground v.1.15,2013-07-23 13:12:00,
2013-07-23 09:17:00,71.7,68.6,29.63,East,100,2.0,5.0,90,0.00,,,0.22,Wunderground v.1.15,2013-07-23 13:17:00,
2013-07-23 09:22:00,71.9,68.8,29.63,ESE,109,3.0,5.0,90,0.00,,,0.22,Wunderground v.1.15,2013-07-23 13:22:00,
2013-07-23 09:27:00,72.2,69.1,29.63,SE,141,6.0,7.0,90,0.00,,,0.22,Wunderground v.1.15,2013-07-23 13:27:00,
2013-07-23 09:32:00,72.5,69.4,29.63,SE,127,1.0,5.0,90,0.00,,,0.22,Wunderground v.1.15,2013-07-23 13:32:00,
2013-07-23 09:37:00,72.7,69.6,29.63,ESE,123,7.0,7.0,90,0.00,,,0.22,Wunderground v.1.15,2013-07-23 13:37:00,
2013-07-23 09:42:00,72.8,69.7,29.62,SE,132,1.0,6.0,90,0.00,,,0.22,Wunderground v.1.15,2013-07-23 13:42:00,
2013-07-23 09:47:00,73.0,69.9,29.62,SE,133,3.0,6.0,90,0.00,,,0.22,Wunderground v.1.15,2013-07-23 13:47:00,
2013-07-23 09:52:00,73.2,70.1,29.62,SE,136,2.0,5.0,90,0.00,,,0.22,Wunderground v.1.15,2013-07-23 13:52:00,
2013-07-23 09:57:00,73.4,70.3,29.62,ESE,116,2.0,6.0,90,0.00,,,0.22,Wunderground v.1.15,2013-07-23 13:57:00,
2013-07-23 10:02:00,73.6,70.5,29.61,ESE,121,1.0,4.0,90,0.00,,,0.22,Wunderground v.1.15,2013-07-23 14:02:00,
2013-07-23 10:07:00,73.7,70.6,29.61,ESE,121,0.0,4.0,90,0.00,,,0.22,Wunderground v.1.15,2013-07-23 14:07:00,
2013-07-23 10:12:00,73.8,70.7,29.61,ESE,121,0.0,1.0,90,0.00,,,0.22,Wunderground v.1.15,2013-07-23 14:12:00,
2013-07-23 10:17:00,73.9,70.8,29.61,ESE,121,0.0,1.0,90,0.00,,,0.22,Wunderground v.1.15,2013-07-23 14:17:00,
2013-07-23 10:22:00,74.0,70.9,29.61,SE,141,1.0,3.0,90,0.00,,,0.22,Wunderground v.1.15,2013-07-23 14:22:00,
2013-07-23 10:27:00,74.3,71.2,29.60,SE,145,2.0,6.0,90,0.00,,,0.22,Wunderground v.1.15,2013-07-23 14:27:00,
2013-07-23 10:32:00,74.6,71.8,29.60,SE,146,0.0,4.0,91,0.00,,,0.22,Wunderground v.1.15,2013-07-23 14:32:00,
2013-07-23 10:37:00,74.9,71.8,29.60,SSW,192,6.0,6.0,90,0.00,,,0.22,Wunderground v.1.15,2013-07-23 14:37:00,
2013-07-23 10:42:00,75.1,72.3,29.59,SSW,196,0.0,3.0,91,0.00,,,0.22,Wunderground v.1.15,2013-07-23 14:42:00,
2013-07-23 10:47:00,75.4,72.6,29.60,South,175,2.0,6.0,91,0.00,,,0.22,Wunderground v.1.15,2013-07-23 14:47:00,
2013-07-23 10:52:00,75.5,72.4,29.60,SSE,155,5.0,6.0,90,0.00,,,0.22,Wunderground v.1.15,2013-07-23 14:52:00,
2013-07-23 10:57:00,75.7,72.9,29.60,South,179,1.0,6.0,91,0.00,,,0.22,Wunderground v.1.15,2013-07-23 14:57:00,
2013-07-23 11:02:00,75.8,73.0,29.60,SW,227,0.0,3.0,91,0.00,,,0.22,Wunderground v.1.15,2013-07-23 15:02:00,
2013-07-23 11:07:00,75.9,73.1,29.60,WSW,239,1.0,8.0,91,0.00,,,0.22,Wunderground v.1.15,2013-07-23 15:07:00,
2013-07-23 11:12:00,76.0,72.9,29.59,SSW,202,2.0,6.0,90,0.00,,,0.22,Wunderground v.1.15,2013-07-23 15:12:00,
2013-07-23 11:17:00,76.2,73.1,29.59,WSW,246,0.0,6.0,90,0.00,,,0.22,Wunderground v.1.15,2013-07-23 15:17:00,
2013-07-23 11:22:00,76.1,73.0,29.59,South,173,5.0,9.0,90,0.00,,,0.22,Wunderground v.1.15,2013-07-23 15:22:00,
2013-07-23 11:27:00,76.1,73.0,29.59,South,190,3.0,9.0,90,0.00,,,0.22,Wunderground v.1.15,2013-07-23 15:27:00,
2013-07-23 11:32:00,75.9,72.8,29.59,South,186,4.0,10.0,90,0.00,,,0.22,Wunderground v.1.15,2013-07-23 15:32:00,
2013-07-23 11:37:00,75.8,72.7,29.59,SSW,192,7.0,10.0,90,0.00,,,0.22,Wunderground v.1.15,2013-07-23 15:37:00,
2013-07-23 11:42:00,75.8,72.7,29.58,SSW,213,2.0,5.0,90,0.00,,,0.22,Wunderground v.1.15,2013-07-23 15:42:00,
2013-07-23 11:47:00,76.0,72.9,29.58,SSE,161,3.0,6.0,90,0.00,,,0.22,Wunderground v.1.15,2013-07-23 15:47:00,
2013-07-23 11:52:00,76.2,72.7,29.58,SSE,153,9.0,10.0,89,0.00,,,0.22,Wunderground v.1.15,2013-07-23 15:52:00,
2013-07-23 11:57:00,76.3,72.8,29.58,SSW,211,7.0,13.0,89,0.00,,,0.22,Wunderground v.1.15,2013-07-23 15:57:00,
2013-07-23 12:02:00,76.6,73.1,29.58,South,171,4.0,10.0,89,0.00,,,0.22,Wunderground v.1.15,2013-07-23 16:02:00,
2013-07-23 12:07:00,76.7,72.9,29.58,SSW,194,4.0,12.0,88,0.00,,,0.22,Wunderground v.1.15,2013-07-23 16:07:00,
2013-07-23 12:13:00,76.8,72.6,29.57,South,173,11.0,13.0,87,0.00,,,0.22,Wunderground v.1.15,2013-07-23 16:13:00,
2013-07-23 12:18:00,76.9,72.7,29.57,SSW,201,10.0,13.0,87,0.00,,,0.22,Wunderground v.1.15,2013-07-23 16:18:00,
2013-07-23 12:23:00,77.0,72.8,29.56,SSW,207,7.0,9.0,87,0.00,,,0.22,Wunderground v.1.15,2013-07-23 16:23:00,
2013-07-23 12:28:00,77.3,72.8,29.56,South,188,5.0,10.0,86,0.00,,,0.22,Wunderground v.1.15,2013-07-23 16:28:00,
2013-07-23 12:33:00,77.5,73.0,29.55,SSW,202,6.0,10.0,86,0.00,,,0.22,Wunderground v.1.15,2013-07-23 16:33:00,
2013-07-23 12:38:00,77.7,73.2,29.55,South,176,2.0,12.0,86,0.00,,,0.22,Wunderground v.1.15,2013-07-23 16:38:00,
2013-07-23 12:43:00,77.8,72.9,29.55,SSW,213,5.0,7.0,85,0.00,,,0.22,Wunderground v.1.15,2013-07-23 16:43:00,
2013-07-23 12:48:00,77.8,72.9,29.55,SSE,162,6.0,10.0,85,0.00,,,0.22,Wunderground v.1.15,2013-07-23 16:48:00,
2013-07-23 12:53:00,77.9,73.0,29.54,SSE,155,9.0,10.0,85,0.00,,,0.22,Wunderground v.1.15,2013-07-23 16:53:00,
2013-07-23 12:58:00,78.0,73.1,29.53,South,183,9.0,13.0,85,0.00,,,0.22,Wunderground v.1.15,2013-07-23 16:58:00,
2013-07-23 13:03:00,78.2,73.3,29.54,SSE,148,8.0,13.0,85,0.00,,,0.22,Wunderground v.1.15,2013-07-23 17:03:00,
2013-07-23 13:08:00,78.2,73.0,29.55,SSW,195,6.0,18.0,84,0.00,,,0.22,Wunderground v.1.15,2013-07-23 17:08:00,
2013-07-23 13:13:00,77.9,72.3,29.54,SW,217,7.0,19.0,83,0.00,,,0.22,Wunderground v.1.15,2013-07-23 17:13:00,
2013-07-23 13:18:00,77.4,71.5,29.54,South,182,6.0,19.0,82,0.00,,,0.22,Wunderground v.1.15,2013-07-23 17:18:00,
2013-07-23 13:23:00,77.1,71.5,29.55,South,186,8.0,12.0,83,0.00,,,0.22,Wunderground v.1.15,2013-07-23 17:23:00,
2013-07-23 13:28:00,76.7,71.5,29.56,South,186,5.0,17.0,84,0.77,,,0.25,Wunderground v.1.15,2013-07-23 17:28:00,
2013-07-23 13:33:00,76.4,71.6,29.56,South,187,6.0,14.0,85,0.21,,,0.29,Wunderground v.1.15,2013-07-23 17:33:00,
2013-07-23 13:38:00,75.9,71.1,29.55,SSW,197,5.0,16.0,85,0.11,,,0.29,Wunderground v.1.15,2013-07-23 17:38:00,
2013-07-23 13:43:00,75.6,70.8,29.56,SSW,198,1.0,9.0,85,0.09,,,0.30,Wunderground v.1.15,2013-07-23 17:43:00,
2013-07-23 13:48:00,75.5,71.0,29.55,SSW,208,0.0,9.0,86,0.06,,,0.30,Wunderground v.1.15,2013-07-23 17:48:00,
2013-07-23 13:53:00,75.5,71.0,29.55,West,259,2.0,7.0,86,0.04,,,0.30,Wunderground v.1.15,2013-07-23 17:53:00,
2013-07-23 13:59:00,75.5,71.4,29.54,WNW,287,1.0,7.0,87,0.00,,,0.30,Wunderground v.1.15,2013-07-23 17:59:00,
2013-07-23 14:04:00,75.5,71.4,29.54,WSW,246,3.0,3.0,87,0.00,,,0.30,Wunderground v.1.15,2013-07-23 18:04:00,
2013-07-23 14:09:00,75.5,71.4,29.54,WSW,257,3.0,3.0,87,0.00,,,0.30,Wunderground v.1.15,2013-07-23 18:09:00,
2013-07-23 14:14:00,75.4,71.3,29.54,WSW,238,0.0,4.0,87,0.00,,,0.30,Wunderground v.1.15,2013-07-23 18:14:00,
2013-07-23 14:19:00,75.3,71.2,29.55,West,277,0.0,6.0,87,0.00,,,0.31,Wunderground v.1.15,2013-07-23 18:19:00,
2013-07-23 14:24:00,75.3,71.2,29.54,WSW,252,2.0,6.0,87,2.98,,,0.52,Wunderground v.1.15,2013-07-23 18:24:00,
2013-07-23 14:30:00,75.2,71.1,29.54,WSW,247,0.0,2.0,87,0.43,,,0.60,Wunderground v.1.15,2013-07-23 18:30:00,
2013-07-23 14:35:00,75.1,71.3,29.54,West,271,1.0,5.0,88,1.01,,,0.63,Wunderground v.1.15,2013-07-23 18:35:00,
2013-07-23 14:40:00,75.1,71.3,29.54,SSW,192,2.0,3.0,88,0.20,,,0.66,Wunderground v.1.15,2013-07-23 18:40:00,
2013-07-23 14:45:00,75.1,71.3,29.53,SSW,192,0.0,3.0,88,0.23,,,0.70,Wunderground v.1.15,2013-07-23 18:45:00,
2013-07-23 14:50:00,75.3,71.5,29.53,WSW,237,2.0,2.0,88,0.08,,,0.70,Wunderground v.1.15,2013-07-23 18:50:00,
2013-07-23 14:55:00,75.4,71.6,29.53,SW,219,3.0,3.0,88,0.05,,,0.70,Wunderground v.1.15,2013-07-23 18:55:00,
2013-07-23 15:00:00,75.5,71.7,29.53,WSW,247,1.0,1.0,88,0.00,,,0.70,Wunderground v.1.15,2013-07-23 19:00:00,
2013-07-23 15:06:00,75.7,72.2,29.52,South,184,0.0,3.0,89,0.00,,,0.70,Wunderground v.1.15,2013-07-23 19:06:00,
2013-07-23 15:11:00,75.9,72.4,29.52,SSW,203,1.0,1.0,89,0.00,,,0.70,Wunderground v.1.15,2013-07-23 19:11:00,
2013-07-23 15:16:00,76.0,72.5,29.51,WSW,253,0.0,3.0,89,0.00,,,0.70,Wunderground v.1.15,2013-07-23 19:16:00,
2013-07-23 15:21:00,76.0,72.5,29.51,WSW,253,1.0,2.0,89,0.00,,,0.70,Wunderground v.1.15,2013-07-23 19:21:00,
2013-07-23 15:27:00,75.8,72.3,29.51,SW,218,1.0,3.0,89,0.00,,,0.70,Wunderground v.1.15,2013-07-23 19:27:00,
2013-07-23 15:31:00,75.8,72.3,29.51,SSW,200,3.0,4.0,89,0.00,,,0.70,Wunderground v.1.15,2013-07-23 19:31:00,
2013-07-23 15:38:00,75.8,72.3,29.51,SW,232,0.0,6.0,89,0.00,,,0.70,Wunderground v.1.15,2013-07-23 19:38:00,
2013-07-23 15:43:00,76.0,72.5,29.51,West,279,2.0,3.0,89,0.00,,,0.70,Wunderground v.1.15,2013-07-23 19:43:00,
2013-07-23 15:49:00,76.2,72.7,29.51,NNW,342,0.0,5.0,89,0.00,,,0.70,Wunderground v.1.15,2013-07-23 19:49:00,
2013-07-23 15:54:00,76.3,72.8,29.51,NNW,334,3.0,5.0,89,0.00,,,0.70,Wunderground v.1.15,2013-07-23 19:54:00,
2013-07-23 15:59:00,76.3,72.8,29.51,NW,315,2.0,5.0,89,0.00,,,0.70,Wunderground v.1.15,2013-07-23 19:59:00,
2013-07-23 16:04:00,76.3,72.8,29.53,NW,326,9.0,9.0,89,0.00,,,0.70,Wunderground v.1.15,2013-07-23 20:04:00,
2013-07-23 16:09:00,76.1,72.3,29.53,NNW,344,8.0,24.0,88,0.00,,,0.70,Wunderground v.1.15,2013-07-23 20:09:00,
2013-07-23 16:14:00,74.6,70.1,29.53,NNW,335,12.0,17.0,86,0.00,,,0.70,Wunderground v.1.15,2013-07-23 20:14:00,
2013-07-23 16:20:00,73.5,69.1,29.52,NW,318,7.0,10.0,86,0.00,,,0.70,Wunderground v.1.15,2013-07-23 20:20:00,
2013-07-23 16:25:00,72.8,68.4,29.52,NW,323,8.0,11.0,86,0.00,,,0.70,Wunderground v.1.15,2013-07-23 20:25:00,
2013-07-23 16:30:00,72.4,68.3,29.52,NW,317,1.0,6.0,87,0.00,,,0.70,Wunderground v.1.15,2013-07-23 20:30:00,
2013-07-23 16:36:00,72.3,68.2,29.52,WNW,288,9.0,9.0,87,0.00,,,0.70,Wunderground v.1.15,2013-07-23 20:36:00,
2013-07-23 16:41:00,72.4,68.6,29.52,NW,316,2.0,6.0,88,1.62,,,0.84,Wunderground v.1.15,2013-07-23 20:41:00,
2013-07-23 16:46:00,72.2,68.1,29.52,NW,322,0.0,7.0,87,1.54,,,0.96,Wunderground v.1.15,2013-07-23 20:46:00,
2013-07-23 16:51:00,72.3,68.5,29.51,SSW,195,2.0,3.0,88,0.28,,,1.00,Wunderground v.1.15,2013-07-23 20:51:00,
2013-07-23 16:56:00,72.4,68.6,29.51,SE,141,4.0,6.0,88,0.69,,,1.05,Wunderground v.1.15,2013-07-23 20:56:00,
2013-07-23 17:02:00,72.4,68.6,29.51,SE,138,0.0,3.0,88,0.15,,,1.07,Wunderground v.1.15,2013-07-23 21:02:00,
2013-07-23 17:07:00,72.3,68.5,29.51,SE,138,0.0,3.0,88,0.11,,,1.08,Wunderground v.1.15,2013-07-23 21:07:00,
2013-07-23 17:12:00,72.4,68.6,29.51,SE,139,1.0,1.0,88,0.10,,,1.08,Wunderground v.1.15,2013-07-23 21:12:00,
2013-07-23 17:17:00,72.5,69.1,29.51,SSE,149,0.0,3.0,89,0.05,,,1.08,Wunderground v.1.15,2013-07-23 21:17:00,
2013-07-23 17:22:00,72.5,69.1,29.51,SSE,148,3.0,3.0,89,0.04,,,1.08,Wunderground v.1.15,2013-07-23 21:22:00,
2013-07-23 17:27:00,72.7,69.3,29.51,South,190,0.0,4.0,89,0.00,,,1.08,Wunderground v.1.15,2013-07-23 21:27:00,
2013-07-23 17:33:00,72.8,69.4,29.51,South,190,0.0,1.0,89,0.00,,,1.09,Wunderground v.1.15,2013-07-23 21:33:00,
2013-07-23 17:38:00,73.0,69.6,29.51,WSW,240,0.0,2.0,89,0.00,,,1.09,Wunderground v.1.15,2013-07-23 21:38:00,
2013-07-23 17:43:00,73.2,69.8,29.51,WSW,240,1.0,2.0,89,0.00,,,1.09,Wunderground v.1.15,2013-07-23 21:43:00,
2013-07-23 17:48:00,73.2,69.8,29.52,WSW,240,0.0,2.0,89,0.00,,,1.09,Wunderground v.1.15,2013-07-23 21:48:00,
2013-07-23 17:53:00,73.3,69.9,29.52,WSW,240,0.0,1.0,89,0.00,,,1.09,Wunderground v.1.15,2013-07-23 21:53:00,
2013-07-23 17:59:00,73.3,69.9,29.52,WSW,240,0.0,1.0,89,0.00,,,1.09,Wunderground v.1.15,2013-07-23 21:59:00,
2013-07-23 18:04:00,73.3,69.9,29.53,WSW,240,2.0,3.0,89,0.00,,,1.09,Wunderground v.1.15,2013-07-23 22:04:00,
2013-07-23 18:10:00,73.3,69.9,29.53,WSW,240,0.0,1.0,89,0.00,,,1.09,Wunderground v.1.15,2013-07-23 22:10:00,
2013-07-23 18:15:00,73.4,70.0,29.53,WSW,240,2.0,3.0,89,0.00,,,1.09,Wunderground v.1.15,2013-07-23 22:15:00,
2013-07-23 18:20:00,73.4,70.0,29.53,WSW,257,3.0,3.0,89,0.00,,,1.09,Wunderground v.1.15,2013-07-23 22:20:00,
2013-07-23 18:26:00,73.3,69.9,29.53,NW,322,3.0,3.0,89,0.00,,,1.09,Wunderground v.1.15,2013-07-23 22:26:00,
2013-07-23 18:31:00,73.3,69.9,29.53,NNW,337,1.0,2.0,89,0.00,,,1.09,Wunderground v.1.15,2013-07-23 22:31:00,
2013-07-23 18:36:00,73.2,69.8,29.53,NNW,337,2.0,2.0,89,0.00,,,1.09,Wunderground v.1.15,2013-07-23 22:36:00,
2013-07-23 18:41:00,73.1,69.7,29.53,NNW,339,3.0,4.0,89,0.00,,,1.09,Wunderground v.1.15,2013-07-23 22:41:00,
2013-07-23 18:46:00,73.0,69.6,29.53,NNW,339,3.0,4.0,89,0.00,,,1.09,Wunderground v.1.15,2013-07-23 22:46:00,
2013-07-23 18:51:00,73.0,69.6,29.54,NNW,339,0.0,2.0,89,0.00,,,1.09,Wunderground v.1.15,2013-07-23 22:51:00,
2013-07-23 18:57:00,73.0,69.9,29.54,WNW,296,0.0,2.0,90,0.00,,,1.09,Wunderground v.1.15,2013-07-23 22:57:00,
2013-07-23 19:02:00,73.1,70.0,29.53,WNW,297,0.0,0.0,90,0.00,,,1.09,Wunderground v.1.15,2013-07-23 23:02:00,
2013-07-23 19:08:00,73.1,70.0,29.54,WNW,297,0.0,0.0,90,0.00,,,1.09,Wunderground v.1.15,2013-07-23 23:08:00,
2013-07-23 19:13:00,73.2,70.1,29.54,WNW,296,0.0,0.0,90,0.00,,,1.09,Wunderground v.1.15,2013-07-23 23:13:00,
2013-07-23 19:18:00,73.2,70.1,29.54,WNW,297,0.0,0.0,90,0.00,,,1.09,Wunderground v.1.15,2013-07-23 23:18:00,
2013-07-23 19:23:00,73.2,70.1,29.54,WNW,297,0.0,0.0,90,0.00,,,1.09,Wunderground v.1.15,2013-07-23 23:23:00,
2013-07-23 19:29:00,73.1,70.0,29.55,WNW,296,0.0,1.0,90,0.00,,,1.09,Wunderground v.1.15,2013-07-23 23:29:00,
2013-07-23 19:34:00,73.1,70.0,29.54,WNW,296,0.0,0.0,90,0.00,,,1.09,Wunderground v.1.15,2013-07-23 23:34:00,
2013-07-23 19:39:00,73.1,70.0,29.55,WNW,297,0.0,0.0,90,0.00,,,1.09,Wunderground v.1.15,2013-07-23 23:39:00,
2013-07-23 19:44:00,73.1,70.0,29.55,WNW,296,0.0,0.0,90,0.00,,,1.09,Wunderground v.1.15,2013-07-23 23:44:00,
2013-07-23 19:49:00,73.2,70.1,29.55,WNW,296,1.0,3.0,90,0.00,,,1.09,Wunderground v.1.15,2013-07-23 23:49:00,
2013-07-23 19:54:00,73.2,70.1,29.56,WNW,297,0.0,1.0,90,0.00,,,1.09,Wunderground v.1.15,2013-07-23 23:54:00,
2013-07-23 19:59:00,73.1,70.0,29.56,WNW,297,1.0,2.0,90,0.00,,,1.09,Wunderground v.1.15,2013-07-23 23:59:00,
2013-07-23 20:04:00,73.1,70.0,29.56,WNW,298,1.0,3.0,90,0.00,,,1.09,Wunderground v.1.15,2013-07-24 00:04:00,
2013-07-23 20:09:00,73.1,70.0,29.55,WNW,298,0.0,3.0,90,0.00,,,1.09,Wunderground v.1.15,2013-07-24 00:09:00,
2013-07-23 20:14:00,73.1,70.0,29.56,WNW,298,1.0,2.0,90,0.00,,,1.09,Wunderground v.1.15,2013-07-24 00:14:00,
2013-07-23 20:20:00,73.1,70.0,29.56,WNW,298,0.0,0.0,90,0.00,,,1.09,Wunderground v.1.15,2013-07-24 00:20:00,
2013-07-23 20:25:00,73.0,69.9,29.55,WNW,299,0.0,0.0,90,0.00,,,1.09,Wunderground v.1.15,2013-07-24 00:25:00,
2013-07-23 20:30:00,73.0,69.9,29.55,WNW,299,0.0,0.0,90,0.00,,,1.09,Wunderground v.1.15,2013-07-24 00:30:00,
2013-07-23 20:36:00,73.0,69.9,29.56,WNW,298,0.0,2.0,90,0.00,,,1.09,Wunderground v.1.15,2013-07-24 00:36:00,
2013-07-23 20:41:00,73.0,69.9,29.55,WNW,298,2.0,2.0,90,0.00,,,1.09,Wunderground v.1.15,2013-07-24 00:41:00,
2013-07-23 20:46:00,73.0,69.9,29.55,WNW,299,0.0,2.0,90,0.00,,,1.09,Wunderground v.1.15,2013-07-24 00:46:00,
2013-07-23 20:51:00,73.0,69.9,29.55,WNW,299,0.0,0.0,90,0.00,,,1.09,Wunderground v.1.15,2013-07-24 00:51:00,
2013-07-23 20:57:00,73.0,69.9,29.55,WNW,300,0.0,0.0,90,0.00,,,1.09,Wunderground v.1.15,2013-07-24 00:57:00,
2013-07-23 21:02:00,73.0,69.9,29.55,WNW,299,0.0,0.0,90,0.00,,,1.09,Wunderground v.1.15,2013-07-24 01:02:00,
2013-07-23 21:07:00,73.0,69.9,29.55,WNW,299,0.0,0.0,90,0.00,,,1.09,Wunderground v.1.15,2013-07-24 01:07:00,
2013-07-23 21:12:00,73.0,69.9,29.56,WNW,299,0.0,0.0,90,0.00,,,1.09,Wunderground v.1.15,2013-07-24 01:12:00,
2013-07-23 21:18:00,73.0,69.9,29.56,WNW,287,1.0,2.0,90,0.00,,,1.09,Wunderground v.1.15,2013-07-24 01:18:00,
2013-07-23 21:23:00,73.1,70.0,29.56,WNW,287,0.0,0.0,90,0.00,,,1.09,Wunderground v.1.15,2013-07-24 01:23:00,
2013-07-23 21:28:00,73.1,70.0,29.56,WNW,287,0.0,1.0,90,0.00,,,1.09,Wunderground v.1.15,2013-07-24 01:28:00,
2013-07-23 21:33:00,73.0,69.9,29.56,WNW,287,0.0,2.0,90,0.00,,,1.09,Wunderground v.1.15,2013-07-24 01:33:00,
2013-07-23 21:38:00,73.0,69.9,29.56,WNW,287,0.0,2.0,90,0.00,,,1.09,Wunderground v.1.15,2013-07-24 01:38:00,
2013-07-23 21:43:00,73.0,69.9,29.56,WNW,290,2.0,3.0,90,0.00,,,1.09,Wunderground v.1.15,2013-07-24 01:43:00,
2013-07-23 21:49:00,73.0,69.9,29.57,WNW,290,1.0,3.0,90,0.00,,,1.09,Wunderground v.1.15,2013-07-24 01:49:00,
2013-07-23 21:54:00,73.0,69.9,29.56,WNW,290,0.0,2.0,90,0.00,,,1.09,Wunderground v.1.15,2013-07-24 01:54:00,
2013-07-23 22:00:00,73.0,69.9,29.56,WNW,290,0.0,0.0,90,0.00,,,1.09,Wunderground v.1.15,2013-07-24 02:00:00,
2013-07-23 22:05:00,73.0,69.9,29.56,WNW,290,0.0,0.0,90,0.00,,,1.09,Wunderground v.1.15,2013-07-24 02:05:00,
2013-07-23 22:10:00,73.0,69.9,29.56,WNW,290,0.0,0.0,90,0.00,,,1.09,Wunderground v.1.15,2013-07-24 02:10:00,
2013-07-23 22:15:00,73.0,69.9,29.56,WNW,290,0.0,0.0,90,0.00,,,1.09,Wunderground v.1.15,2013-07-24 02:15:00,
2013-07-23 22:20:00,73.1,70.0,29.56,WNW,290,0.0,0.0,90,0.00,,,1.09,Wunderground v.1.15,2013-07-24 02:20:00,
2013-07-23 22:26:00,73.1,70.0,29.56,WNW,290,0.0,0.0,90,0.00,,,1.09,Wunderground v.1.15,2013-07-24 02:26:00,
2013-07-23 22:31:00,73.1,70.0,29.56,WNW,290,0.0,0.0,90,0.00,,,1.09,Wunderground v.1.15,2013-07-24 02:31:00,
2013-07-23 22:37:00,73.0,69.9,29.56,WNW,290,0.0,0.0,90,0.00,,,1.09,Wunderground v.1.15,2013-07-24 02:37:00,
2013-07-23 22:42:00,72.9,69.8,29.57,WNW,290,0.0,0.0,90,0.00,,,1.09,Wunderground v.1.15,2013-07-24 02:42:00,
2013-07-23 22:47:00,72.9,69.8,29.56,WNW,290,0.0,0.0,90,0.00,,,1.09,Wunderground v.1.15,2013-07-24 02:47:00,
2013-07-23 22:52:00,72.9,69.8,29.56,WNW,290,0.0,0.0,90,0.00,,,1.09,Wunderground v.1.15,2013-07-24 02:52:00,
2013-07-23 22:57:00,72.8,69.7,29.56,WNW,290,0.0,0.0,90,0.00,,,1.09,Wunderground v.1.15,2013-07-24 02:57:00,
2013-07-23 23:02:00,72.8,69.7,29.56,WNW,290,0.0,0.0,90,0.00,,,1.09,Wunderground v.1.15,2013-07-24 03:02:00,
2013-07-23 23:07:00,72.9,69.8,29.56,WNW,290,0.0,0.0,90,0.00,,,1.09,Wunderground v.1.15,2013-07-24 03:07:00,
2013-07-23 23:12:00,72.8,69.7,29.56,WNW,290,0.0,0.0,90,0.00,,,1.09,Wunderground v.1.15,2013-07-24 03:12:00,
2013-07-23 23:17:00,72.8,69.7,29.56,WNW,290,0.0,0.0,90,0.00,,,1.09,Wunderground v.1.15,2013-07-24 03:17:00,
2013-07-23 23:23:00,72.7,69.6,29.56,WNW,290,0.0,0.0,90,0.00,,,1.09,Wunderground v.1.15,2013-07-24 03:23:00,
2013-07-23 23:28:00,72.7,69.6,29.56,WNW,290,0.0,0.0,90,0.00,,,1.09,Wunderground v.1.15,2013-07-24 03:28:00,
2013-07-23 23:33:00,72.6,69.5,29.56,WNW,290,0.0,0.0,90,0.00,,,1.09,Wunderground v.1.15,2013-07-24 03:33:00,
2013-07-23 23:38:00,72.6,69.5,29.56,WNW,290,0.0,0.0,90,0.00,,,1.09,Wunderground v.1.15,2013-07-24 03:38:00,
2013-07-23 23:44:00,72.6,69.5,29.56,WNW,290,0.0,0.0,90,0.00,,,1.09,Wunderground v.1.15,2013-07-24 03:44:00,
2013-07-23 23:49:00,72.6,69.5,29.56,WNW,290,0.0,0.0,90,0.00,,,1.09,Wunderground v.1.15,2013-07-24 03:49:00,
2013-07-23 23:54:00,72.5,69.4,29.56,WNW,290,0.0,0.0,90,0.00,,,1.09,Wunderground v.1.15,2013-07-24 03:54:00,
2013-07-23 23:59:00,72.5,69.4,29.56,WNW,290,0.0,0.0,90,0.00,,,1.09,Wunderground v.1.15,2013-07-24 03:59:00,